sensor_id;sensor_type;location;lat;lon;timestamp;pressure;altitude;pressure_sealevel;temperature;humidity
58092;BME280;43896;48.178;11.578;2022-11-20T00:02:25;95278.84;;;7.79;66.21
58092;BME280;43896;48.178;11.578;2022-11-20T00:04:50;95298.38;;;7.93;67.12
58092;BME280;43896;48.178;11.578;2022-11-20T00:07:15;95271.41;;;7.93;70.26
58092;BME280;43896;48.178;11.578;2022-11-20T00:09:41;95289.84;;;8.17;68.10
58092;BME280;43896;48.178;11.578;2022-11-20T00:12:06;95292.75;;;8.14;68.87
58092;BME280;43896;48.178;11.578;2022-11-20T00:14:31;95294.28;;;8.25;73.21
58092;BME280;43896;48.178;11.578;2022-11-20T00:16:57;95284.00;;;8.32;68.09
58092;BME280;43896;48.178;11.578;2022-11-20T00:19:22;95297.34;;;8.47;66.35
58092;BME280;43896;48.178;11.578;2022-11-20T00:21:47;95302.09;;;8.43;65.29
58092;BME280;43896;48.178;11.578;2022-11-20T00:24:16;95306.16;;;8.37;64.62
58092;BME280;43896;48.178;11.578;2022-11-20T00:26:41;95278.69;;;8.15;65.36
58092;BME280;43896;48.178;11.578;2022-11-20T00:29:09;95303.94;;;8.24;65.77
58092;BME280;43896;48.178;11.578;2022-11-20T00:31:35;95309.34;;;8.23;65.84
58092;BME280;43896;48.178;11.578;2022-11-20T00:34:00;95303.53;;;8.11;65.67
58092;BME280;43896;48.178;11.578;2022-11-20T00:36:27;95300.91;;;8.11;65.87
58092;BME280;43896;48.178;11.578;2022-11-20T00:38:54;95303.25;;;8.14;65.59
58092;BME280;43896;48.178;11.578;2022-11-20T00:41:20;95307.88;;;8.20;66.22
58092;BME280;43896;48.178;11.578;2022-11-20T00:43:45;95308.63;;;8.13;66.03
58092;BME280;43896;48.178;11.578;2022-11-20T00:46:16;95315.38;;;8.15;66.36
58092;BME280;43896;48.178;11.578;2022-11-20T00:48:42;95319.63;;;8.16;65.90
58092;BME280;43896;48.178;11.578;2022-11-20T00:51:08;95316.34;;;8.14;65.54
58092;BME280;43896;48.178;11.578;2022-11-20T00:53:33;95294.16;;;8.00;66.84
58092;BME280;43896;48.178;11.578;2022-11-20T00:56:01;95306.50;;;8.08;66.41
58092;BME280;43896;48.178;11.578;2022-11-20T00:58:32;95301.56;;;8.05;66.29
58092;BME280;43896;48.178;11.578;2022-11-20T01:01:11;95312.34;;;8.02;66.22
58092;BME280;43896;48.178;11.578;2022-11-20T01:03:39;95298.38;;;7.93;66.02
58092;BME280;43896;48.178;11.578;2022-11-20T01:06:14;95310.84;;;7.99;65.77
58092;BME280;43896;48.178;11.578;2022-11-20T01:08:40;95326.59;;;8.07;65.71
58092;BME280;43896;48.178;11.578;2022-11-20T01:11:08;95326.75;;;8.06;66.03
58092;BME280;43896;48.178;11.578;2022-11-20T01:13:35;95332.34;;;8.11;66.05
58092;BME280;43896;48.178;11.578;2022-11-20T01:16:11;95314.03;;;7.85;66.01
58092;BME280;43896;48.178;11.578;2022-11-20T01:18:39;95326.72;;;7.98;65.68
58092;BME280;43896;48.178;11.578;2022-11-20T01:21:07;95341.50;;;8.07;66.31
58092;BME280;43896;48.178;11.578;2022-11-20T01:23:35;95341.19;;;8.10;65.58
58092;BME280;43896;48.178;11.578;2022-11-20T01:26:02;95314.19;;;7.83;66.41
58092;BME280;43896;48.178;11.578;2022-11-20T01:28:28;95335.56;;;7.97;65.80
58092;BME280;43896;48.178;11.578;2022-11-20T01:30:54;95332.34;;;8.03;65.20
58092;BME280;43896;48.178;11.578;2022-11-20T01:33:19;95339.84;;;8.06;65.97
58092;BME280;43896;48.178;11.578;2022-11-20T01:35:44;95293.81;;;7.69;65.13
58092;BME280;43896;48.178;11.578;2022-11-20T01:38:10;95345.00;;;7.89;65.95
58092;BME280;43896;48.178;11.578;2022-11-20T01:40:35;95343.72;;;7.94;66.17
58092;BME280;43896;48.178;11.578;2022-11-20T01:43:21;95339.81;;;7.98;65.84
58092;BME280;43896;48.178;11.578;2022-11-20T01:46:01;95341.50;;;8.07;65.22
58092;BME280;43896;48.178;11.578;2022-11-20T01:48:48;95344.78;;;8.09;65.34
58092;BME280;43896;48.178;11.578;2022-11-20T01:53:48;95330.38;;;8.05;64.59
58092;BME280;43896;48.178;11.578;2022-11-20T01:56:15;95339.56;;;8.09;65.34
58092;BME280;43896;48.178;11.578;2022-11-20T01:58:46;95338.44;;;8.12;64.67
58092;BME280;43896;48.178;11.578;2022-11-20T02:01:13;95336.28;;;8.07;65.37
58092;BME280;43896;48.178;11.578;2022-11-20T02:03:40;95332.34;;;8.03;65.52
58092;BME280;43896;48.178;11.578;2022-11-20T02:08:32;95318.47;;;7.84;65.77
58092;BME280;43896;48.178;11.578;2022-11-20T02:10:57;95340.19;;;8.03;65.70
58092;BME280;43896;48.178;11.578;2022-11-20T02:13:23;95327.63;;;7.88;65.86
58092;BME280;43896;48.178;11.578;2022-11-20T02:16:13;95319.63;;;7.90;65.18
58092;BME280;43896;48.178;11.578;2022-11-20T02:18:40;95315.53;;;7.87;65.34
58092;BME280;43896;48.178;11.578;2022-11-20T02:21:21;95340.94;;;7.95;65.80
58092;BME280;43896;48.178;11.578;2022-11-20T02:24:06;95350.31;;;7.98;65.77
58092;BME280;43896;48.178;11.578;2022-11-20T02:26:42;95325.19;;;7.87;65.98
58092;BME280;43896;48.178;11.578;2022-11-20T02:29:09;95330.25;;;7.88;65.50
58092;BME280;43896;48.178;11.578;2022-11-20T02:31:40;95334.38;;;7.91;65.66
58092;BME280;43896;48.178;11.578;2022-11-20T02:34:07;95339.97;;;7.96;65.60
58092;BME280;43896;48.178;11.578;2022-11-20T02:36:34;95327.69;;;7.97;65.78
58092;BME280;43896;48.178;11.578;2022-11-20T02:39:01;95341.31;;;8.00;65.78
58092;BME280;43896;48.178;11.578;2022-11-20T02:41:34;95336.38;;;7.97;65.48
58092;BME280;43896;48.178;11.578;2022-11-20T02:44:00;95341.41;;;7.91;65.42
58092;BME280;43896;48.178;11.578;2022-11-20T02:46:26;95353.22;;;7.95;65.74
58092;BME280;43896;48.178;11.578;2022-11-20T02:48:51;95348.94;;;7.94;65.34
58092;BME280;43896;48.178;11.578;2022-11-20T02:51:17;95333.53;;;7.91;65.23
58092;BME280;43896;48.178;11.578;2022-11-20T02:53:42;95332.16;;;7.78;65.17
58092;BME280;43896;48.178;11.578;2022-11-20T02:56:07;95344.94;;;7.81;65.38
58092;BME280;43896;48.178;11.578;2022-11-20T02:58:32;95339.03;;;7.79;65.14
58092;BME280;43896;48.178;11.578;2022-11-20T03:00:58;95321.31;;;7.73;65.62
58092;BME280;43896;48.178;11.578;2022-11-20T03:03:23;95281.63;;;7.60;64.96
58092;BME280;43896;48.178;11.578;2022-11-20T03:05:48;95322.56;;;7.87;64.72
58092;BME280;43896;48.178;11.578;2022-11-20T03:08:13;95327.84;;;7.95;64.94
58092;BME280;43896;48.178;11.578;2022-11-20T03:10:39;95312.56;;;7.82;64.22
58092;BME280;43896;48.178;11.578;2022-11-20T03:13:04;95326.47;;;7.83;64.84
58092;BME280;43896;48.178;11.578;2022-11-20T03:15:30;95323.56;;;7.94;64.83
58092;BME280;43896;48.178;11.578;2022-11-20T03:17:55;95340.94;;;7.95;64.41
58092;BME280;43896;48.178;11.578;2022-11-20T03:20:21;95331.78;;;7.99;63.69
58092;BME280;43896;48.178;11.578;2022-11-20T03:22:46;95331.75;;;7.91;64.31
58092;BME280;43896;48.178;11.578;2022-11-20T03:25:11;95321.28;;;7.91;63.94
58092;BME280;43896;48.178;11.578;2022-11-20T03:27:37;95317.09;;;7.80;64.03
58092;BME280;43896;48.178;11.578;2022-11-20T03:30:03;95333.03;;;7.87;63.86
58092;BME280;43896;48.178;11.578;2022-11-20T03:32:28;95334.16;;;7.84;64.07
58092;BME280;43896;48.178;11.578;2022-11-20T03:34:54;95314.13;;;7.75;64.06
58092;BME280;43896;48.178;11.578;2022-11-20T03:37:19;95322.41;;;7.88;63.57
58092;BME280;43896;48.178;11.578;2022-11-20T03:39:44;95325.88;;;7.89;63.86
58092;BME280;43896;48.178;11.578;2022-11-20T03:42:09;95302.41;;;7.79;63.00
58092;BME280;43896;48.178;11.578;2022-11-20T03:44:53;95323.06;;;7.91;62.85
58092;BME280;43896;48.178;11.578;2022-11-20T03:47:19;95321.59;;;7.88;62.97
58092;BME280;43896;48.178;11.578;2022-11-20T03:49:44;95322.91;;;7.92;63.04
58092;BME280;43896;48.178;11.578;2022-11-20T03:52:09;95324.41;;;7.95;62.77
58092;BME280;43896;48.178;11.578;2022-11-20T03:54:34;95313.88;;;7.86;62.94
58092;BME280;43896;48.178;11.578;2022-11-20T03:57:00;95341.41;;;7.91;63.20
58092;BME280;43896;48.178;11.578;2022-11-20T03:59:25;95319.44;;;7.83;63.16
58092;BME280;43896;48.178;11.578;2022-11-20T04:01:50;95319.94;;;7.87;63.22
58092;BME280;43896;48.178;11.578;2022-11-20T04:04:15;95340.06;;;7.86;62.72
58092;BME280;43896;48.178;11.578;2022-11-20T04:06:41;95344.59;;;8.02;62.29
58092;BME280;43896;48.178;11.578;2022-11-20T04:09:06;95341.56;;;7.89;63.33
58092;BME280;43896;48.178;11.578;2022-11-20T04:11:34;95337.31;;;7.88;62.95
58092;BME280;43896;48.178;11.578;2022-11-20T04:14:01;95340.44;;;7.92;63.61
58092;BME280;43896;48.178;11.578;2022-11-20T04:16:32;95341.56;;;7.89;62.79
58092;BME280;43896;48.178;11.578;2022-11-20T04:19:02;95331.94;;;7.72;63.55
58092;BME280;43896;48.178;11.578;2022-11-20T04:21:28;95340.66;;;7.80;62.75
58092;BME280;43896;48.178;11.578;2022-11-20T04:23:53;95342.03;;;7.84;62.19
58092;BME280;43896;48.178;11.578;2022-11-20T04:26:19;95343.19;;;7.90;63.03
58092;BME280;43896;48.178;11.578;2022-11-20T04:28:45;95339.09;;;7.87;62.21
58092;BME280;43896;48.178;11.578;2022-11-20T04:31:13;95344.38;;;7.96;62.55
58092;BME280;43896;48.178;11.578;2022-11-20T04:33:39;95341.59;;;7.97;62.09
58092;BME280;43896;48.178;11.578;2022-11-20T04:36:19;95334.31;;;7.83;62.12
58092;BME280;43896;48.178;11.578;2022-11-20T04:38:45;95344.53;;;7.94;62.20
58092;BME280;43896;48.178;11.578;2022-11-20T04:41:19;95326.84;;;7.70;62.08
58092;BME280;43896;48.178;11.578;2022-11-20T04:43:53;95331.41;;;7.86;62.37
58092;BME280;43896;48.178;11.578;2022-11-20T04:46:23;95334.53;;;7.89;62.37
58092;BME280;43896;48.178;11.578;2022-11-20T04:48:48;95330.56;;;7.85;61.80
58092;BME280;43896;48.178;11.578;2022-11-20T04:51:14;95353.22;;;7.95;61.95
58092;BME280;43896;48.178;11.578;2022-11-20T04:53:39;95351.41;;;7.95;62.71
58092;BME280;43896;48.178;11.578;2022-11-20T04:56:06;95351.78;;;8.00;62.80
58092;BME280;43896;48.178;11.578;2022-11-20T04:58:33;95342.13;;;8.01;62.15
58092;BME280;43896;48.178;11.578;2022-11-20T05:01:06;95350.91;;;7.92;62.27
58092;BME280;43896;48.178;11.578;2022-11-20T05:03:32;95341.41;;;7.91;63.01
58092;BME280;43896;48.178;11.578;2022-11-20T05:06:02;95340.78;;;7.97;62.49
58092;BME280;43896;48.178;11.578;2022-11-20T05:08:29;95340.50;;;8.00;62.56
58092;BME280;43896;48.178;11.578;2022-11-20T05:11:07;95339.81;;;7.98;61.99
58092;BME280;43896;48.178;11.578;2022-11-20T05:13:33;95323.91;;;7.91;62.19
58092;BME280;43896;48.178;11.578;2022-11-20T05:16:09;95315.13;;;7.74;62.64
58092;BME280;43896;48.178;11.578;2022-11-20T05:18:36;95342.03;;;7.84;62.95
58092;BME280;43896;48.178;11.578;2022-11-20T05:21:02;95335.69;;;7.69;63.83
58092;BME280;43896;48.178;11.578;2022-11-20T05:23:29;95338.22;;;7.79;63.29
58092;BME280;43896;48.178;11.578;2022-11-20T05:25:55;95318.19;;;7.69;63.55
58092;BME280;43896;48.178;11.578;2022-11-20T05:28:21;95343.66;;;7.85;63.60
58092;BME280;43896;48.178;11.578;2022-11-20T05:30:47;95343.47;;;7.79;63.59
58092;BME280;43896;48.178;11.578;2022-11-20T05:33:13;95355.31;;;7.91;63.26
58092;BME280;43896;48.178;11.578;2022-11-20T05:35:38;95346.75;;;7.81;63.25
58092;BME280;43896;48.178;11.578;2022-11-20T05:38:03;95336.28;;;7.81;63.55
58092;BME280;43896;48.178;11.578;2022-11-20T05:40:29;95343.66;;;7.85;62.96
58092;BME280;43896;48.178;11.578;2022-11-20T05:42:54;95345.16;;;7.88;63.05
58092;BME280;43896;48.178;11.578;2022-11-20T05:45:20;95336.50;;;7.69;63.77
58092;BME280;43896;48.178;11.578;2022-11-20T05:47:45;95354.13;;;7.85;63.11
58092;BME280;43896;48.178;11.578;2022-11-20T05:50:10;95331.22;;;7.61;63.16
58092;BME280;43896;48.178;11.578;2022-11-20T05:52:36;95328.44;;;7.63;62.93
58092;BME280;43896;48.178;11.578;2022-11-20T05:55:01;95346.53;;;7.74;63.47
58092;BME280;43896;48.178;11.578;2022-11-20T05:57:26;95337.66;;;7.67;63.59
58092;BME280;43896;48.178;11.578;2022-11-20T05:59:52;95343.25;;;7.72;63.18
58092;BME280;43896;48.178;11.578;2022-11-20T06:02:17;95339.66;;;7.73;63.55
58092;BME280;43896;48.178;11.578;2022-11-20T06:04:43;95347.34;;;7.75;63.04
58092;BME280;43896;48.178;11.578;2022-11-20T06:07:08;95346.69;;;7.73;63.43
58092;BME280;43896;48.178;11.578;2022-11-20T06:09:34;95329.59;;;7.60;63.26
58092;BME280;43896;48.178;11.578;2022-11-20T06:11:59;95350.97;;;7.74;63.47
58092;BME280;43896;48.178;11.578;2022-11-20T06:14:24;95333.47;;;7.56;62.76
58092;BME280;43896;48.178;11.578;2022-11-20T06:16:50;95324.84;;;7.38;62.93
58092;BME280;43896;48.178;11.578;2022-11-20T06:19:15;95348.72;;;7.61;62.96
58092;BME280;43896;48.178;11.578;2022-11-20T06:21:41;95354.97;;;7.68;62.88
58092;BME280;43896;48.178;11.578;2022-11-20T06:24:08;95351.41;;;7.69;62.27
58092;BME280;43896;48.178;11.578;2022-11-20T06:26:34;95346.41;;;7.58;63.10
58092;BME280;43896;48.178;11.578;2022-11-20T06:28:59;95339.03;;;7.53;63.17
58092;BME280;43896;48.178;11.578;2022-11-20T06:31:25;95351.63;;;7.58;61.75
58092;BME280;43896;48.178;11.578;2022-11-20T06:33:51;95357.91;;;7.65;62.41
58092;BME280;43896;48.178;11.578;2022-11-20T06:36:19;95351.88;;;7.46;62.22
58092;BME280;43896;48.178;11.578;2022-11-20T06:38:45;95364.97;;;7.46;62.31
58092;BME280;43896;48.178;11.578;2022-11-20T06:41:13;95359.84;;;7.63;62.11
58092;BME280;43896;48.178;11.578;2022-11-20T06:43:39;95364.13;;;7.64;61.21
58092;BME280;43896;48.178;11.578;2022-11-20T06:46:05;95366.06;;;7.44;61.84
58092;BME280;43896;48.178;11.578;2022-11-20T06:48:31;95350.47;;;7.34;61.49
58092;BME280;43896;48.178;11.578;2022-11-20T06:50:57;95363.91;;;7.57;61.07
58092;BME280;43896;48.178;11.578;2022-11-20T06:53:23;95369.56;;;7.53;61.52
58092;BME280;43896;48.178;11.578;2022-11-20T06:55:49;95376.84;;;7.59;60.93
58092;BME280;43896;48.178;11.578;2022-11-20T06:58:16;95371.97;;;7.64;60.56
58092;BME280;43896;48.178;11.578;2022-11-20T07:00:42;95386.09;;;7.71;60.29
58092;BME280;43896;48.178;11.578;2022-11-20T07:03:09;95383.84;;;7.76;60.31
58092;BME280;43896;48.178;11.578;2022-11-20T07:05:35;95385.34;;;7.61;60.77
58092;BME280;43896;48.178;11.578;2022-11-20T07:08:01;95384.63;;;7.68;60.13
58092;BME280;43896;48.178;11.578;2022-11-20T07:10:27;95363.69;;;7.50;60.51
58092;BME280;43896;48.178;11.578;2022-11-20T07:12:53;95386.53;;;7.66;59.05
58092;BME280;43896;48.178;11.578;2022-11-20T07:15:20;95390.00;;;7.67;59.73
58092;BME280;43896;48.178;11.578;2022-11-20T07:17:45;95388.84;;;7.69;59.95
58092;BME280;43896;48.178;11.578;2022-11-20T07:20:11;95384.25;;;7.63;60.05
58092;BME280;43896;48.178;11.578;2022-11-20T07:22:37;95397.53;;;7.70;59.70
58092;BME280;43896;48.178;11.578;2022-11-20T07:25:03;95398.44;;;7.61;60.13
58092;BME280;43896;48.178;11.578;2022-11-20T07:27:28;95394.91;;;7.70;59.80
58092;BME280;43896;48.178;11.578;2022-11-20T07:29:54;95385.44;;;7.69;59.77
58092;BME280;43896;48.178;11.578;2022-11-20T07:32:19;95394.22;;;7.86;59.90
58092;BME280;43896;48.178;11.578;2022-11-20T07:34:45;95399.97;;;7.89;59.14
58092;BME280;43896;48.178;11.578;2022-11-20T07:37:10;95384.66;;;7.77;59.84
58092;BME280;43896;48.178;11.578;2022-11-20T07:39:36;95403.19;;;7.83;59.34
58092;BME280;43896;48.178;11.578;2022-11-20T07:42:01;95395.25;;;7.93;59.48
58092;BME280;43896;48.178;11.578;2022-11-20T07:44:26;95396.34;;;7.82;59.95
58092;BME280;43896;48.178;11.578;2022-11-20T07:46:51;95350.44;;;7.52;59.59
58092;BME280;43896;48.178;11.578;2022-11-20T07:49:17;95384.75;;;7.67;60.57
58092;BME280;43896;48.178;11.578;2022-11-20T07:51:42;95392.66;;;7.75;60.00
58092;BME280;43896;48.178;11.578;2022-11-20T07:54:07;95382.16;;;7.67;59.85
58092;BME280;43896;48.178;11.578;2022-11-20T07:56:32;95397.00;;;7.84;59.49
58092;BME280;43896;48.178;11.578;2022-11-20T07:58:58;95377.22;;;7.64;59.89
58092;BME280;43896;48.178;11.578;2022-11-20T08:01:23;95394.91;;;7.70;60.02
58092;BME280;43896;48.178;11.578;2022-11-20T08:03:48;95391.03;;;7.56;60.31
58092;BME280;43896;48.178;11.578;2022-11-20T08:06:14;95384.69;;;7.59;60.30
58092;BME280;43896;48.178;11.578;2022-11-20T08:08:39;95401.94;;;7.69;60.89
58092;BME280;43896;48.178;11.578;2022-11-20T08:11:05;95396.56;;;7.71;60.56
58092;BME280;43896;48.178;11.578;2022-11-20T08:13:49;95406.81;;;7.64;61.66
58092;BME280;43896;48.178;11.578;2022-11-20T08:16:33;95388.34;;;7.66;60.75
58092;BME280;43896;48.178;11.578;2022-11-20T08:18:58;95395.97;;;7.77;60.77
58092;BME280;43896;48.178;11.578;2022-11-20T08:21:24;95395.97;;;7.77;60.57
58092;BME280;43896;48.178;11.578;2022-11-20T08:23:49;95392.66;;;7.75;60.95
58092;BME280;43896;48.178;11.578;2022-11-20T08:26:14;95410.97;;;7.93;60.51
58092;BME280;43896;48.178;11.578;2022-11-20T08:28:40;95400.22;;;7.78;60.78
58092;BME280;43896;48.178;11.578;2022-11-20T08:31:05;95405.81;;;7.83;61.21
58092;BME280;43896;48.178;11.578;2022-11-20T08:33:31;95414.03;;;8.06;60.37
58092;BME280;43896;48.178;11.578;2022-11-20T08:36:01;95411.84;;;8.02;59.58
58092;BME280;43896;48.178;11.578;2022-11-20T08:38:27;95406.47;;;8.03;60.58
58092;BME280;43896;48.178;11.578;2022-11-20T08:40:56;95390.38;;;7.98;59.60
58092;BME280;43896;48.178;11.578;2022-11-20T08:43:40;95409.81;;;8.14;59.26
58092;BME280;43896;48.178;11.578;2022-11-20T08:46:05;95396.34;;;8.08;59.74
58092;BME280;43896;48.178;11.578;2022-11-20T08:48:30;95399.41;;;8.04;59.36
58092;BME280;43896;48.178;11.578;2022-11-20T08:50:58;95406.91;;;7.99;59.01
58092;BME280;43896;48.178;11.578;2022-11-20T08:53:24;95393.47;;;7.94;59.44
58092;BME280;43896;48.178;11.578;2022-11-20T08:55:49;95405.75;;;8.19;58.82
58092;BME280;43896;48.178;11.578;2022-11-20T08:58:14;95396.88;;;8.12;58.37
58092;BME280;43896;48.178;11.578;2022-11-20T09:00:40;95411.34;;;8.24;58.80
58092;BME280;43896;48.178;11.578;2022-11-20T09:03:05;95401.50;;;8.18;57.72
58092;BME280;43896;48.178;11.578;2022-11-20T09:05:30;95386.69;;;8.09;58.86
58092;BME280;43896;48.178;11.578;2022-11-20T09:07:58;95404.06;;;8.36;57.95
58092;BME280;43896;48.178;11.578;2022-11-20T09:10:24;95398.03;;;8.18;58.25
58092;BME280;43896;48.178;11.578;2022-11-20T09:12:50;95395.13;;;8.21;58.76
58092;BME280;43896;48.178;11.578;2022-11-20T09:15:17;95393.81;;;8.25;57.63
58092;BME280;43896;48.178;11.578;2022-11-20T09:17:50;95392.25;;;8.32;57.82
58092;BME280;43896;48.178;11.578;2022-11-20T09:20:15;95400.78;;;8.34;58.52
58092;BME280;43896;48.178;11.578;2022-11-20T09:22:41;95390.25;;;8.26;56.92
58092;BME280;43896;48.178;11.578;2022-11-20T09:25:06;95376.47;;;8.24;57.82
58092;BME280;43896;48.178;11.578;2022-11-20T09:27:32;95400.38;;;8.47;57.83
58092;BME280;43896;48.178;11.578;2022-11-20T09:29:57;95386.81;;;8.52;56.66
58092;BME280;43896;48.178;11.578;2022-11-20T09:32:22;95387.97;;;8.57;56.47
58092;BME280;43896;48.178;11.578;2022-11-20T09:34:47;95380.09;;;8.57;57.38
58092;BME280;43896;48.178;11.578;2022-11-20T09:37:13;95378.84;;;8.70;56.71
58092;BME280;43896;48.178;11.578;2022-11-20T09:39:38;95385.16;;;8.51;56.03
58092;BME280;43896;48.178;11.578;2022-11-20T09:50:27;95374.66;;;8.51;55.93
58092;BME280;43896;48.178;11.578;2022-11-20T09:53:04;95388.97;;;8.64;56.11
58092;BME280;43896;48.178;11.578;2022-11-20T09:55:36;95372.59;;;8.62;55.65
58092;BME280;43896;48.178;11.578;2022-11-20T09:58:06;95385.63;;;8.80;55.24
58092;BME280;43896;48.178;11.578;2022-11-20T10:00:32;95385.63;;;8.89;54.52
58092;BME280;43896;48.178;11.578;2022-11-20T10:03:14;95372.72;;;8.87;54.97
58092;BME280;43896;48.178;11.578;2022-11-20T10:05:45;95359.81;;;9.10;54.17
58092;BME280;43896;48.178;11.578;2022-11-20T10:08:39;95363.78;;;9.55;53.83
58092;BME280;43896;48.178;11.578;2022-11-20T10:24:55;95378.72;;;9.47;53.27
58092;BME280;43896;48.178;11.578;2022-11-20T10:27:44;95379.38;;;9.41;53.95
58092;BME280;43896;48.178;11.578;2022-11-20T10:30:14;95372.31;;;9.33;53.99
58092;BME280;43896;48.178;11.578;2022-11-20T10:32:45;95373.47;;;9.47;53.07
58092;BME280;43896;48.178;11.578;2022-11-20T10:37:47;95372.50;;;9.48;53.76
58092;BME280;43896;48.178;11.578;2022-11-20T10:43:03;95359.69;;;9.36;54.47
58092;BME280;43896;48.178;11.578;2022-11-20T10:45:38;95363.63;;;9.32;54.46
58092;BME280;43896;48.178;11.578;2022-11-20T10:50:35;95354.09;;;9.31;54.37
58092;BME280;43896;48.178;11.578;2022-11-20T10:53:12;95354.94;;;9.48;54.74
58092;BME280;43896;48.178;11.578;2022-11-20T10:56:09;95362.81;;;9.56;52.29
58092;BME280;43896;48.178;11.578;2022-11-20T11:01:27;95357.88;;;9.45;53.10
58092;BME280;43896;48.178;11.578;2022-11-20T11:03:54;95366.72;;;9.28;52.73
58092;BME280;43896;48.178;11.578;2022-11-20T11:06:29;95361.47;;;9.28;53.34
58092;BME280;43896;48.178;11.578;2022-11-20T11:09:00;95354.91;;;9.15;53.58
58092;BME280;43896;48.178;11.578;2022-11-20T11:11:29;95350.31;;;9.17;54.17
58092;BME280;43896;48.178;11.578;2022-11-20T11:14:15;95351.63;;;9.30;53.84
58092;BME280;43896;48.178;11.578;2022-11-20T11:16:54;95347.41;;;9.53;53.24
58092;BME280;43896;48.178;11.578;2022-11-20T11:19:19;95354.41;;;10.10;52.07
58092;BME280;43896;48.178;11.578;2022-11-20T11:22:10;95346.22;;;10.05;52.74
58092;BME280;43896;48.178;11.578;2022-11-20T11:24:51;95336.41;;;9.58;54.06
58092;BME280;43896;48.178;11.578;2022-11-20T11:27:17;95324.44;;;9.80;52.92
58092;BME280;43896;48.178;11.578;2022-11-20T11:29:42;95320.63;;;9.74;52.46
58092;BME280;43896;48.178;11.578;2022-11-20T11:32:11;95356.25;;;9.77;53.12
58092;BME280;43896;48.178;11.578;2022-11-20T11:34:37;95349.53;;;9.58;52.74
58092;BME280;43896;48.178;11.578;2022-11-20T11:37:03;95329.84;;;9.37;53.41
58092;BME280;43896;48.178;11.578;2022-11-20T11:39:30;95310.47;;;9.22;53.46
58092;BME280;43896;48.178;11.578;2022-11-20T11:41:57;95316.19;;;9.17;53.51
58092;BME280;43896;48.178;11.578;2022-11-20T11:44:33;95324.56;;;9.21;54.02
58092;BME280;43896;48.178;11.578;2022-11-20T11:47:23;95341.75;;;9.07;55.19
58092;BME280;43896;48.178;11.578;2022-11-20T11:49:59;95326.69;;;9.09;53.93
58092;BME280;43896;48.178;11.578;2022-11-20T11:52:25;95329.69;;;9.39;54.11
58092;BME280;43896;48.178;11.578;2022-11-20T11:54:57;95330.84;;;9.53;53.16
58092;BME280;43896;48.178;11.578;2022-11-20T12:00:16;95319.50;;;9.44;53.69
58092;BME280;43896;48.178;11.578;2022-11-20T12:05:14;95334.91;;;9.31;53.94
58092;BME280;43896;48.178;11.578;2022-11-20T12:07:45;95333.78;;;9.25;54.73
58092;BME280;43896;48.178;11.578;2022-11-20T12:10:37;95341.31;;;9.20;54.91
58092;BME280;43896;48.178;11.578;2022-11-20T12:13:18;95305.50;;;8.86;56.35
58092;BME280;43896;48.178;11.578;2022-11-20T12:15:46;95325.31;;;8.80;58.33
58092;BME280;43896;48.178;11.578;2022-11-20T12:18:16;95333.03;;;8.82;60.31
58092;BME280;43896;48.178;11.578;2022-11-20T12:20:48;95331.84;;;8.76;59.89
58092;BME280;43896;48.178;11.578;2022-11-20T12:23:24;95324.97;;;8.75;59.88
58092;BME280;43896;48.178;11.578;2022-11-20T12:25:56;95331.66;;;8.70;59.89
58092;BME280;43896;48.178;11.578;2022-11-20T12:28:53;95305.44;;;8.61;58.84
58092;BME280;43896;48.178;11.578;2022-11-20T12:34:19;95334.50;;;8.85;57.99
58092;BME280;43896;48.178;11.578;2022-11-20T12:37:17;95320.81;;;8.64;58.71
58092;BME280;43896;48.178;11.578;2022-11-20T12:39:49;95331.66;;;8.61;59.21
58092;BME280;43896;48.178;11.578;2022-11-20T12:45:36;95322.63;;;8.64;59.87
58092;BME280;43896;48.178;11.578;2022-11-20T12:51:10;95322.00;;;8.70;59.29
58092;BME280;43896;48.178;11.578;2022-11-20T12:56:35;95325.75;;;8.68;60.33
58092;BME280;43896;48.178;11.578;2022-11-20T13:01:50;95322.75;;;8.54;59.86
58092;BME280;43896;48.178;11.578;2022-11-20T13:07:07;95317.75;;;8.35;60.59
58092;BME280;43896;48.178;11.578;2022-11-20T13:09:37;95333.94;;;8.56;60.54
58092;BME280;43896;48.178;11.578;2022-11-20T13:12:15;95308.56;;;8.39;60.27
58092;BME280;43896;48.178;11.578;2022-11-20T13:14:50;95311.81;;;8.59;60.44
58092;BME280;43896;48.178;11.578;2022-11-20T13:20:19;95307.22;;;8.53;60.95
58092;BME280;43896;48.178;11.578;2022-11-20T13:25:23;95318.38;;;8.29;61.62
58092;BME280;43896;48.178;11.578;2022-11-20T13:27:49;95291.91;;;8.05;62.46
58092;BME280;43896;48.178;11.578;2022-11-20T13:30:18;95304.22;;;8.13;61.41
58092;BME280;43896;48.178;11.578;2022-11-20T13:32:57;95305.56;;;8.17;62.28
58092;BME280;43896;48.178;11.578;2022-11-20T13:35:36;95300.88;;;8.29;61.27
58092;BME280;43896;48.178;11.578;2022-11-20T13:38:05;95283.28;;;8.21;61.65
58092;BME280;43896;48.178;11.578;2022-11-20T13:40:30;95287.56;;;8.22;61.74
58092;BME280;43896;48.178;11.578;2022-11-20T13:43:04;95290.94;;;8.15;61.87
58092;BME280;43896;48.178;11.578;2022-11-20T13:45:32;95291.84;;;8.23;62.65
58092;BME280;43896;48.178;11.578;2022-11-20T13:48:04;95296.38;;;8.21;62.40
58092;BME280;43896;48.178;11.578;2022-11-20T13:50:56;95300.72;;;8.39;62.16
58092;BME280;43896;48.178;11.578;2022-11-20T13:56:48;95303.19;;;8.32;63.22
58092;BME280;43896;48.178;11.578;2022-11-20T13:59:39;95292.19;;;8.29;62.44
58092;BME280;43896;48.178;11.578;2022-11-20T14:02:11;95286.16;;;8.36;61.98
58092;BME280;43896;48.178;11.578;2022-11-20T14:04:42;95285.69;;;8.41;61.01
58092;BME280;43896;48.178;11.578;2022-11-20T14:07:08;95296.88;;;8.51;62.10
58092;BME280;43896;48.178;11.578;2022-11-20T14:09:34;95285.94;;;8.30;62.15
58092;BME280;43896;48.178;11.578;2022-11-20T14:12:01;95272.97;;;8.20;61.47
58092;BME280;43896;48.178;11.578;2022-11-20T14:14:28;95282.06;;;8.42;61.35
58092;BME280;43896;48.178;11.578;2022-11-20T14:17:30;95297.66;;;8.43;62.32
58092;BME280;43896;48.178;11.578;2022-11-20T14:19:59;95300.47;;;8.50;62.35